sensor_id;sensor_type;location;lat;lon;timestamp;P1;durP1;ratioP1;P2;durP2;ratioP2
40991;SDS011;29633;49.168;9.848;2022-07-21T00:01:13;7.28;;;6.18;;
40991;SDS011;29633;49.168;9.848;2022-07-21T00:03:38;6.78;;;6.10;;
40991;SDS011;29633;49.168;9.848;2022-07-21T00:06:04;6.55;;;6.05;;
40991;SDS011;29633;49.168;9.848;2022-07-21T00:08:31;5.97;;;5.47;;
40991;SDS011;29633;49.168;9.848;2022-07-21T00:10:56;7.35;;;6.10;;
40991;SDS011;29633;49.168;9.848;2022-07-21T00:13:22;6.40;;;5.80;;
40991;SDS011;29633;49.168;9.848;2022-07-21T00:15:48;8.90;;;6.13;;
40991;SDS011;29633;49.168;9.848;2022-07-21T00:18:14;7.15;;;6.45;;
40991;SDS011;29633;49.168;9.848;2022-07-21T00:20:42;6.95;;;6.25;;
40991;SDS011;29633;49.168;9.848;2022-07-21T00:23:08;7.53;;;6.72;;
40991;SDS011;29633;49.168;9.848;2022-07-21T00:25:34;7.22;;;6.63;;
40991;SDS011;29633;49.168;9.848;2022-07-21T00:28:01;6.88;;;6.28;;
40991;SDS011;29633;49.168;9.848;2022-07-21T00:30:29;7.88;;;6.85;;
40991;SDS011;29633;49.168;9.848;2022-07-21T00:32:55;7.15;;;6.55;;
40991;SDS011;29633;49.168;9.848;2022-07-21T00:35:20;7.80;;;6.97;;
40991;SDS011;29633;49.168;9.848;2022-07-21T00:37:46;7.43;;;6.82;;
40991;SDS011;29633;49.168;9.848;2022-07-21T00:40:12;7.72;;;6.82;;
40991;SDS011;29633;49.168;9.848;2022-07-21T00:42:40;8.05;;;7.35;;
40991;SDS011;29633;49.168;9.848;2022-07-21T00:45:08;8.35;;;7.03;;
40991;SDS011;29633;49.168;9.848;2022-07-21T00:47:35;9.95;;;6.82;;
40991;SDS011;29633;49.168;9.848;2022-07-21T00:50:03;7.30;;;6.60;;
40991;SDS011;29633;49.168;9.848;2022-07-21T00:52:38;6.90;;;6.30;;
40991;SDS011;29633;49.168;9.848;2022-07-21T00:55:04;7.45;;;6.45;;
40991;SDS011;29633;49.168;9.848;2022-07-21T00:57:31;7.45;;;6.75;;
40991;SDS011;29633;49.168;9.848;2022-07-21T00:59:58;7.38;;;6.72;;
40991;SDS011;29633;49.168;9.848;2022-07-21T01:02:23;7.75;;;7.10;;
40991;SDS011;29633;49.168;9.848;2022-07-21T01:04:51;8.20;;;7.40;;
40991;SDS011;29633;49.168;9.848;2022-07-21T01:07:18;7.68;;;7.07;;
40991;SDS011;29633;49.168;9.848;2022-07-21T01:09:45;8.20;;;7.20;;
40991;SDS011;29633;49.168;9.848;2022-07-21T01:12:10;8.35;;;7.43;;
40991;SDS011;29633;49.168;9.848;2022-07-21T01:14:37;7.57;;;6.85;;
40991;SDS011;29633;49.168;9.848;2022-07-21T01:17:03;8.10;;;7.43;;
40991;SDS011;29633;49.168;9.848;2022-07-21T01:19:29;7.60;;;6.90;;
40991;SDS011;29633;49.168;9.848;2022-07-21T01:21:55;7.18;;;6.60;;
40991;SDS011;29633;49.168;9.848;2022-07-21T01:24:21;8.13;;;7.32;;
40991;SDS011;29633;49.168;9.848;2022-07-21T01:26:48;7.75;;;6.82;;
40991;SDS011;29633;49.168;9.848;2022-07-21T01:29:17;7.80;;;7.10;;
40991;SDS011;29633;49.168;9.848;2022-07-21T01:31:45;8.38;;;7.55;;
40991;SDS011;29633;49.168;9.848;2022-07-21T01:34:12;8.48;;;6.82;;
40991;SDS011;29633;49.168;9.848;2022-07-21T01:36:38;7.63;;;6.93;;
40991;SDS011;29633;49.168;9.848;2022-07-21T01:39:05;7.78;;;6.97;;
40991;SDS011;29633;49.168;9.848;2022-07-21T01:41:51;7.35;;;6.70;;
40991;SDS011;29633;49.168;9.848;2022-07-21T01:44:17;7.63;;;6.93;;
40991;SDS011;29633;49.168;9.848;2022-07-21T01:46:44;6.97;;;6.38;;
40991;SDS011;29633;49.168;9.848;2022-07-21T01:49:14;7.40;;;6.55;;
40991;SDS011;29633;49.168;9.848;2022-07-21T01:51:41;7.63;;;6.95;;
40991;SDS011;29633;49.168;9.848;2022-07-21T01:54:07;7.30;;;6.60;;
40991;SDS011;29633;49.168;9.848;2022-07-21T01:56:35;7.85;;;7.15;;
40991;SDS011;29633;49.168;9.848;2022-07-21T01:59:03;7.90;;;7.20;;
40991;SDS011;29633;49.168;9.848;2022-07-21T02:01:30;7.55;;;6.95;;
40991;SDS011;29633;49.168;9.848;2022-07-21T02:03:57;7.50;;;6.72;;
40991;SDS011;29633;49.168;9.848;2022-07-21T02:06:25;7.60;;;6.90;;
40991;SDS011;29633;49.168;9.848;2022-07-21T02:08:52;8.63;;;7.10;;
40991;SDS011;29633;49.168;9.848;2022-07-21T02:11:19;7.70;;;7.00;;
40991;SDS011;29633;49.168;9.848;2022-07-21T02:13:45;7.47;;;6.78;;
40991;SDS011;29633;49.168;9.848;2022-07-21T02:16:12;7.47;;;6.68;;
40991;SDS011;29633;49.168;9.848;2022-07-21T02:18:38;8.23;;;7.55;;
40991;SDS011;29633;49.168;9.848;2022-07-21T02:21:05;8.32;;;7.47;;
40991;SDS011;29633;49.168;9.848;2022-07-21T02:23:31;8.40;;;7.35;;
40991;SDS011;29633;49.168;9.848;2022-07-21T02:25:57;8.38;;;7.57;;
40991;SDS011;29633;49.168;9.848;2022-07-21T02:28:23;7.82;;;7.07;;
40991;SDS011;29633;49.168;9.848;2022-07-21T02:30:50;8.23;;;7.53;;
40991;SDS011;29633;49.168;9.848;2022-07-21T02:33:16;8.52;;;7.78;;
40991;SDS011;29633;49.168;9.848;2022-07-21T02:35:43;10.82;;;7.63;;
40991;SDS011;29633;49.168;9.848;2022-07-21T02:38:09;8.15;;;7.40;;
40991;SDS011;29633;49.168;9.848;2022-07-21T02:40:36;8.48;;;7.68;;
40991;SDS011;29633;49.168;9.848;2022-07-21T02:43:02;8.32;;;7.47;;
40991;SDS011;29633;49.168;9.848;2022-07-21T02:45:30;7.30;;;6.60;;
40991;SDS011;29633;49.168;9.848;2022-07-21T02:47:58;8.20;;;6.47;;
40991;SDS011;29633;49.168;9.848;2022-07-21T02:50:36;7.97;;;7.15;;
40991;SDS011;29633;49.168;9.848;2022-07-21T02:53:05;7.65;;;6.95;;
40991;SDS011;29633;49.168;9.848;2022-07-21T02:55:36;7.97;;;7.10;;
40991;SDS011;29633;49.168;9.848;2022-07-21T03:03:28;8.05;;;7.15;;
40991;SDS011;29633;49.168;9.848;2022-07-21T03:05:56;7.15;;;6.45;;
40991;SDS011;29633;49.168;9.848;2022-07-21T03:08:23;7.95;;;7.15;;
40991;SDS011;29633;49.168;9.848;2022-07-21T03:10:51;8.77;;;7.03;;
40991;SDS011;29633;49.168;9.848;2022-07-21T03:13:17;7.32;;;6.50;;
40991;SDS011;29633;49.168;9.848;2022-07-21T03:15:43;7.68;;;7.07;;
40991;SDS011;29633;49.168;9.848;2022-07-21T03:18:09;7.60;;;6.90;;
40991;SDS011;29633;49.168;9.848;2022-07-21T03:20:36;7.53;;;6.45;;
40991;SDS011;29633;49.168;9.848;2022-07-21T03:23:04;6.55;;;5.95;;
40991;SDS011;29633;49.168;9.848;2022-07-21T03:25:30;8.00;;;6.15;;
40991;SDS011;29633;49.168;9.848;2022-07-21T03:27:57;6.72;;;6.00;;
40991;SDS011;29633;49.168;9.848;2022-07-21T03:30:23;6.88;;;6.30;;
40991;SDS011;29633;49.168;9.848;2022-07-21T03:32:50;7.72;;;6.93;;
40991;SDS011;29633;49.168;9.848;2022-07-21T03:35:18;6.50;;;5.90;;
40991;SDS011;29633;49.168;9.848;2022-07-21T03:37:45;7.22;;;6.57;;
40991;SDS011;29633;49.168;9.848;2022-07-21T03:40:23;7.43;;;6.72;;
40991;SDS011;29633;49.168;9.848;2022-07-21T03:42:52;6.95;;;6.38;;
40991;SDS011;29633;49.168;9.848;2022-07-21T03:45:20;7.60;;;6.65;;
40991;SDS011;29633;49.168;9.848;2022-07-21T03:47:48;6.97;;;6.25;;
40991;SDS011;29633;49.168;9.848;2022-07-21T03:50:14;7.85;;;6.57;;
40991;SDS011;29633;49.168;9.848;2022-07-21T03:52:46;7.22;;;6.57;;
40991;SDS011;29633;49.168;9.848;2022-07-21T03:55:12;6.72;;;6.05;;
40991;SDS011;29633;49.168;9.848;2022-07-21T03:57:41;6.95;;;6.35;;
40991;SDS011;29633;49.168;9.848;2022-07-21T04:00:13;6.75;;;6.10;;
40991;SDS011;29633;49.168;9.848;2022-07-21T04:02:43;6.53;;;5.82;;
40991;SDS011;29633;49.168;9.848;2022-07-21T04:05:10;7.07;;;6.38;;
40991;SDS011;29633;49.168;9.848;2022-07-21T04:07:41;7.07;;;6.20;;
40991;SDS011;29633;49.168;9.848;2022-07-21T04:10:10;7.47;;;6.80;;
40991;SDS011;29633;49.168;9.848;2022-07-21T04:12:38;7.82;;;6.85;;
40991;SDS011;29633;49.168;9.848;2022-07-21T04:15:05;7.93;;;7.13;;
40991;SDS011;29633;49.168;9.848;2022-07-21T04:17:33;7.13;;;6.47;;
40991;SDS011;29633;49.168;9.848;2022-07-21T05:11:36;12.32;;;11.13;;
40991;SDS011;29633;49.168;9.848;2022-07-21T05:14:02;10.73;;;9.70;;
40991;SDS011;29633;49.168;9.848;2022-07-21T05:16:28;10.52;;;9.60;;
40991;SDS011;29633;49.168;9.848;2022-07-21T05:18:54;10.73;;;9.73;;
40991;SDS011;29633;49.168;9.848;2022-07-21T05:21:19;9.57;;;8.63;;
40991;SDS011;29633;49.168;9.848;2022-07-21T05:23:45;9.68;;;8.85;;
40991;SDS011;29633;49.168;9.848;2022-07-21T05:26:11;9.10;;;8.30;;
40991;SDS011;29633;49.168;9.848;2022-07-21T05:28:37;10.32;;;9.32;;
40991;SDS011;29633;49.168;9.848;2022-07-21T05:31:03;9.15;;;8.32;;
40991;SDS011;29633;49.168;9.848;2022-07-21T05:33:29;9.23;;;8.52;;
40991;SDS011;29633;49.168;9.848;2022-07-21T05:35:55;9.30;;;8.38;;
40991;SDS011;29633;49.168;9.848;2022-07-21T05:38:21;10.25;;;8.65;;
40991;SDS011;29633;49.168;9.848;2022-07-21T05:40:48;10.30;;;8.35;;
40991;SDS011;29633;49.168;9.848;2022-07-21T05:43:14;10.05;;;8.50;;
40991;SDS011;29633;49.168;9.848;2022-07-21T05:45:40;9.73;;;8.50;;
40991;SDS011;29633;49.168;9.848;2022-07-21T05:48:06;9.02;;;8.15;;
40991;SDS011;29633;49.168;9.848;2022-07-21T05:50:31;11.45;;;8.60;;
40991;SDS011;29633;49.168;9.848;2022-07-21T05:52:57;9.13;;;8.32;;
40991;SDS011;29633;49.168;9.848;2022-07-21T05:55:23;9.23;;;8.35;;
40991;SDS011;29633;49.168;9.848;2022-07-21T05:57:49;9.57;;;8.70;;
40991;SDS011;29633;49.168;9.848;2022-07-21T06:00:15;9.27;;;8.25;;
40991;SDS011;29633;49.168;9.848;2022-07-21T06:02:42;9.43;;;8.45;;
40991;SDS011;29633;49.168;9.848;2022-07-21T06:05:09;9.57;;;8.20;;
40991;SDS011;29633;49.168;9.848;2022-07-21T06:07:36;9.30;;;8.40;;
40991;SDS011;29633;49.168;9.848;2022-07-21T06:10:03;9.63;;;7.95;;
40991;SDS011;29633;49.168;9.848;2022-07-21T06:12:29;11.02;;;8.10;;
40991;SDS011;29633;49.168;9.848;2022-07-21T06:14:55;9.23;;;8.38;;
40991;SDS011;29633;49.168;9.848;2022-07-21T06:17:21;8.48;;;7.72;;
40991;SDS011;29633;49.168;9.848;2022-07-21T06:19:47;9.45;;;8.52;;
40991;SDS011;29633;49.168;9.848;2022-07-21T06:22:13;8.82;;;8.05;;
40991;SDS011;29633;49.168;9.848;2022-07-21T06:24:39;8.80;;;7.90;;
40991;SDS011;29633;49.168;9.848;2022-07-21T06:27:04;8.48;;;7.68;;
40991;SDS011;29633;49.168;9.848;2022-07-21T06:29:30;8.45;;;7.65;;
40991;SDS011;29633;49.168;9.848;2022-07-21T06:31:56;8.23;;;7.47;;
40991;SDS011;29633;49.168;9.848;2022-07-21T06:34:22;8.27;;;7.57;;
40991;SDS011;29633;49.168;9.848;2022-07-21T06:36:48;8.73;;;7.85;;
40991;SDS011;29633;49.168;9.848;2022-07-21T06:39:13;9.02;;;8.23;;
40991;SDS011;29633;49.168;9.848;2022-07-21T06:41:39;8.23;;;7.53;;
40991;SDS011;29633;49.168;9.848;2022-07-21T06:44:05;7.95;;;7.32;;
40991;SDS011;29633;49.168;9.848;2022-07-21T06:46:32;8.40;;;7.60;;
40991;SDS011;29633;49.168;9.848;2022-07-21T06:48:59;7.93;;;7.20;;
40991;SDS011;29633;49.168;9.848;2022-07-21T06:51:26;8.05;;;7.25;;
40991;SDS011;29633;49.168;9.848;2022-07-21T06:53:52;6.90;;;6.30;;
40991;SDS011;29633;49.168;9.848;2022-07-21T06:56:18;7.40;;;6.70;;
40991;SDS011;29633;49.168;9.848;2022-07-21T06:58:44;7.35;;;6.65;;
40991;SDS011;29633;49.168;9.848;2022-07-21T07:01:11;8.27;;;7.47;;
40991;SDS011;29633;49.168;9.848;2022-07-21T07:03:38;7.07;;;6.38;;
40991;SDS011;29633;49.168;9.848;2022-07-21T07:06:04;7.28;;;6.63;;
40991;SDS011;29633;49.168;9.848;2022-07-21T07:08:31;7.28;;;6.50;;
40991;SDS011;29633;49.168;9.848;2022-07-21T07:10:57;6.82;;;6.13;;
40991;SDS011;29633;49.168;9.848;2022-07-21T07:13:23;6.65;;;6.07;;
40991;SDS011;29633;49.168;9.848;2022-07-21T07:15:49;6.93;;;6.32;;
40991;SDS011;29633;49.168;9.848;2022-07-21T07:18:14;5.93;;;5.43;;
40991;SDS011;29633;49.168;9.848;2022-07-21T07:20:40;7.57;;;6.35;;
40991;SDS011;29633;49.168;9.848;2022-07-21T07:23:06;6.38;;;5.78;;
40991;SDS011;29633;49.168;9.848;2022-07-21T07:25:32;6.32;;;5.82;;
40991;SDS011;29633;49.168;9.848;2022-07-21T07:27:58;6.95;;;6.28;;
40991;SDS011;29633;49.168;9.848;2022-07-21T07:30:24;6.53;;;6.03;;
40991;SDS011;29633;49.168;9.848;2022-07-21T07:32:50;6.40;;;5.80;;
40991;SDS011;29633;49.168;9.848;2022-07-21T07:35:16;6.32;;;5.85;;
40991;SDS011;29633;49.168;9.848;2022-07-21T07:37:42;6.35;;;5.72;;
40991;SDS011;29633;49.168;9.848;2022-07-21T07:40:12;6.53;;;6.03;;
40991;SDS011;29633;49.168;9.848;2022-07-21T07:42:41;5.95;;;5.43;;
40991;SDS011;29633;49.168;9.848;2022-07-21T07:45:07;5.57;;;5.07;;
40991;SDS011;29633;49.168;9.848;2022-07-21T07:47:34;5.50;;;5.10;;
40991;SDS011;29633;49.168;9.848;2022-07-21T07:50:00;5.95;;;5.45;;
40991;SDS011;29633;49.168;9.848;2022-07-21T07:52:26;5.53;;;5.13;;
40991;SDS011;29633;49.168;9.848;2022-07-21T07:54:53;5.63;;;5.15;;
40991;SDS011;29633;49.168;9.848;2022-07-21T07:57:19;6.18;;;4.90;;
40991;SDS011;29633;49.168;9.848;2022-07-21T07:59:45;5.63;;;5.22;;
40991;SDS011;29633;49.168;9.848;2022-07-21T08:02:11;5.40;;;4.90;;
40991;SDS011;29633;49.168;9.848;2022-07-21T08:04:37;6.03;;;5.35;;
40991;SDS011;29633;49.168;9.848;2022-07-21T08:07:03;5.40;;;4.85;;
40991;SDS011;29633;49.168;9.848;2022-07-21T08:09:29;5.28;;;4.88;;
40991;SDS011;29633;49.168;9.848;2022-07-21T08:11:55;5.13;;;4.63;;
40991;SDS011;29633;49.168;9.848;2022-07-21T08:14:20;4.75;;;4.35;;
40991;SDS011;29633;49.168;9.848;2022-07-21T08:16:47;5.10;;;4.47;;
40991;SDS011;29633;49.168;9.848;2022-07-21T08:19:13;5.15;;;4.50;;
40991;SDS011;29633;49.168;9.848;2022-07-21T08:21:39;5.00;;;4.60;;
40991;SDS011;29633;49.168;9.848;2022-07-21T08:24:05;4.90;;;4.57;;
40991;SDS011;29633;49.168;9.848;2022-07-21T08:26:33;4.30;;;3.90;;
40991;SDS011;29633;49.168;9.848;2022-07-21T08:28:59;7.60;;;4.32;;
40991;SDS011;29633;49.168;9.848;2022-07-21T08:31:24;4.50;;;4.10;;
40991;SDS011;29633;49.168;9.848;2022-07-21T08:33:51;5.15;;;4.38;;
40991;SDS011;29633;49.168;9.848;2022-07-21T08:36:18;4.38;;;4.07;;
40991;SDS011;29633;49.168;9.848;2022-07-21T08:38:44;3.97;;;3.67;;
40991;SDS011;29633;49.168;9.848;2022-07-21T08:41:10;3.72;;;3.42;;
40991;SDS011;29633;49.168;9.848;2022-07-21T08:43:36;3.58;;;3.22;;
40991;SDS011;29633;49.168;9.848;2022-07-21T08:46:02;3.65;;;3.25;;
40991;SDS011;29633;49.168;9.848;2022-07-21T08:48:28;3.88;;;3.53;;
40991;SDS011;29633;49.168;9.848;2022-07-21T08:50:55;5.57;;;3.45;;
40991;SDS011;29633;49.168;9.848;2022-07-21T08:53:21;3.60;;;3.33;;
40991;SDS011;29633;49.168;9.848;2022-07-21T08:55:49;3.78;;;3.47;;
40991;SDS011;29633;49.168;9.848;2022-07-21T08:58:15;4.22;;;3.50;;
40991;SDS011;29633;49.168;9.848;2022-07-21T09:00:43;3.83;;;3.53;;
40991;SDS011;29633;49.168;9.848;2022-07-21T09:03:16;3.88;;;3.50;;
40991;SDS011;29633;49.168;9.848;2022-07-21T09:06:03;4.78;;;3.55;;
40991;SDS011;29633;49.168;9.848;2022-07-21T09:08:39;3.55;;;3.25;;
40991;SDS011;29633;49.168;9.848;2022-07-21T09:11:23;3.73;;;3.30;;
40991;SDS011;29633;49.168;9.848;2022-07-21T09:14:06;4.68;;;3.58;;
40991;SDS011;29633;49.168;9.848;2022-07-21T09:16:41;3.92;;;3.63;;
40991;SDS011;29633;49.168;9.848;2022-07-21T09:19:19;4.00;;;3.70;;
40991;SDS011;29633;49.168;9.848;2022-07-21T09:21:51;3.72;;;3.42;;
40991;SDS011;29633;49.168;9.848;2022-07-21T09:24:22;7.07;;;3.85;;
40991;SDS011;29633;49.168;9.848;2022-07-21T09:27:11;3.72;;;3.42;;
40991;SDS011;29633;49.168;9.848;2022-07-21T09:29:47;3.90;;;3.60;;
40991;SDS011;29633;49.168;9.848;2022-07-21T09:32:28;3.72;;;3.50;;
40991;SDS011;29633;49.168;9.848;2022-07-21T09:35:04;4.30;;;3.92;;
40991;SDS011;29633;49.168;9.848;2022-07-21T09:37:38;3.72;;;3.42;;
40991;SDS011;29633;49.168;9.848;2022-07-21T09:40:06;4.03;;;3.72;;
40991;SDS011;29633;49.168;9.848;2022-07-21T09:42:43;4.13;;;3.73;;
40991;SDS011;29633;49.168;9.848;2022-07-21T09:45:15;4.28;;;3.88;;
40991;SDS011;29633;49.168;9.848;2022-07-21T09:47:43;3.53;;;3.22;;
40991;SDS011;29633;49.168;9.848;2022-07-21T09:50:11;3.72;;;3.38;;
40991;SDS011;29633;49.168;9.848;2022-07-21T09:52:40;3.38;;;3.17;;
40991;SDS011;29633;49.168;9.848;2022-07-21T09:55:09;4.63;;;3.40;;
40991;SDS011;29633;49.168;9.848;2022-07-21T09:57:38;3.22;;;3.03;;
40991;SDS011;29633;49.168;9.848;2022-07-21T10:00:04;3.28;;;2.97;;
40991;SDS011;29633;49.168;9.848;2022-07-21T10:02:34;3.58;;;3.28;;
40991;SDS011;29633;49.168;9.848;2022-07-21T10:05:07;3.45;;;3.08;;
40991;SDS011;29633;49.168;9.848;2022-07-21T10:07:37;3.25;;;2.95;;
40991;SDS011;29633;49.168;9.848;2022-07-21T10:10:06;3.42;;;3.10;;
40991;SDS011;29633;49.168;9.848;2022-07-21T10:12:33;5.57;;;3.20;;
40991;SDS011;29633;49.168;9.848;2022-07-21T10:14:59;3.08;;;2.88;;
40991;SDS011;29633;49.168;9.848;2022-07-21T10:17:25;3.13;;;2.92;;
40991;SDS011;29633;49.168;9.848;2022-07-21T10:22:52;3.38;;;3.08;;
40991;SDS011;29633;49.168;9.848;2022-07-21T10:25:26;2.67;;;2.47;;
40991;SDS011;29633;49.168;9.848;2022-07-21T10:28:11;3.33;;;2.92;;
40991;SDS011;29633;49.168;9.848;2022-07-21T10:30:46;2.65;;;2.45;;
40991;SDS011;29633;49.168;9.848;2022-07-21T10:33:19;4.25;;;2.45;;
40991;SDS011;29633;49.168;9.848;2022-07-21T10:36:07;2.58;;;2.38;;
40991;SDS011;29633;49.168;9.848;2022-07-21T10:38:35;3.22;;;2.38;;
40991;SDS011;29633;49.168;9.848;2022-07-21T10:41:03;2.58;;;2.38;;
40991;SDS011;29633;49.168;9.848;2022-07-21T10:45:56;2.65;;;2.45;;
40991;SDS011;29633;49.168;9.848;2022-07-21T10:51:03;2.90;;;2.70;;
40991;SDS011;29633;49.168;9.848;2022-07-21T10:53:31;2.97;;;2.78;;
40991;SDS011;29633;49.168;9.848;2022-07-21T10:55:57;3.00;;;2.80;;
40991;SDS011;29633;49.168;9.848;2022-07-21T11:00:58;3.07;;;2.80;;
40991;SDS011;29633;49.168;9.848;2022-07-21T11:03:33;2.70;;;2.50;;
40991;SDS011;29633;49.168;9.848;2022-07-21T11:08:36;2.83;;;2.63;;
40991;SDS011;29633;49.168;9.848;2022-07-21T11:11:16;2.70;;;2.40;;
40991;SDS011;29633;49.168;9.848;2022-07-21T11:22:18;3.30;;;2.58;;
40991;SDS011;29633;49.168;9.848;2022-07-21T11:24:57;3.38;;;2.42;;
40991;SDS011;29633;49.168;9.848;2022-07-21T11:27:31;2.80;;;2.60;;
40991;SDS011;29633;49.168;9.848;2022-07-21T11:30:00;2.85;;;2.53;;
40991;SDS011;29633;49.168;9.848;2022-07-21T11:32:32;2.45;;;2.25;;
40991;SDS011;29633;49.168;9.848;2022-07-21T11:34:59;2.50;;;2.30;;
40991;SDS011;29633;49.168;9.848;2022-07-21T11:37:32;2.40;;;2.20;;
40991;SDS011;29633;49.168;9.848;2022-07-21T11:40:05;2.45;;;2.25;;
40991;SDS011;29633;49.168;9.848;2022-07-21T11:42:31;3.03;;;1.90;;
40991;SDS011;29633;49.168;9.848;2022-07-21T11:44:58;2.85;;;2.33;;
40991;SDS011;29633;49.168;9.848;2022-07-21T11:47:24;3.58;;;2.10;;
40991;SDS011;29633;49.168;9.848;2022-07-21T11:49:54;2.72;;;2.30;;
40991;SDS011;29633;49.168;9.848;2022-07-21T11:52:26;2.30;;;2.10;;
40991;SDS011;29633;49.168;9.848;2022-07-21T11:54:56;3.10;;;2.42;;
40991;SDS011;29633;49.168;9.848;2022-07-21T11:57:24;2.22;;;2.05;;
40991;SDS011;29633;49.168;9.848;2022-07-21T11:59:51;2.60;;;2.40;;
40991;SDS011;29633;49.168;9.848;2022-07-21T12:02:20;4.03;;;2.10;;
40991;SDS011;29633;49.168;9.848;2022-07-21T12:07:34;2.05;;;1.85;;
40991;SDS011;29633;49.168;9.848;2022-07-21T12:10:06;3.17;;;1.88;;
40991;SDS011;29633;49.168;9.848;2022-07-21T12:12:39;2.20;;;2.00;;
40991;SDS011;29633;49.168;9.848;2022-07-21T12:15:17;3.03;;;1.90;;
40991;SDS011;29633;49.168;9.848;2022-07-21T12:18:03;2.17;;;1.98;;
40991;SDS011;29633;49.168;9.848;2022-07-21T12:21:00;2.30;;;1.90;;
40991;SDS011;29633;49.168;9.848;2022-07-21T12:23:30;2.30;;;2.10;;
40991;SDS011;29633;49.168;9.848;2022-07-21T12:25:57;1.80;;;1.70;;
40991;SDS011;29633;49.168;9.848;2022-07-21T12:28:46;2.47;;;2.27;;
40991;SDS011;29633;49.168;9.848;2022-07-21T12:31:19;1.90;;;1.80;;
40991;SDS011;29633;49.168;9.848;2022-07-21T12:33:46;2.40;;;2.20;;
40991;SDS011;29633;49.168;9.848;2022-07-21T12:36:16;2.37;;;2.17;;
40991;SDS011;29633;49.168;9.848;2022-07-21T12:38:46;2.78;;;2.30;;
40991;SDS011;29633;49.168;9.848;2022-07-21T12:41:16;2.22;;;1.80;;
40991;SDS011;29633;49.168;9.848;2022-07-21T12:43:57;1.98;;;1.77;;
40991;SDS011;29633;49.168;9.848;2022-07-21T12:46:32;7.47;;;1.95;;
40991;SDS011;29633;49.168;9.848;2022-07-21T12:49:04;6.22;;;4.03;;
40991;SDS011;29633;49.168;9.848;2022-07-21T12:51:33;2.58;;;2.38;;
40991;SDS011;29633;49.168;9.848;2022-07-21T12:53:59;3.08;;;2.55;;
40991;SDS011;29633;49.168;9.848;2022-07-21T12:56:28;3.47;;;3.00;;
40991;SDS011;29633;49.168;9.848;2022-07-21T12:58:57;2.65;;;2.45;;
40991;SDS011;29633;49.168;9.848;2022-07-21T13:01:26;2.53;;;2.33;;
40991;SDS011;29633;49.168;9.848;2022-07-21T13:03:56;4.55;;;2.80;;
40991;SDS011;29633;49.168;9.848;2022-07-21T13:06:21;3.20;;;2.38;;
40991;SDS011;29633;49.168;9.848;2022-07-21T13:08:47;2.45;;;2.25;;
40991;SDS011;29633;49.168;9.848;2022-07-21T13:11:15;2.60;;;2.40;;
40991;SDS011;29633;49.168;9.848;2022-07-21T13:13:43;2.63;;;2.42;;
40991;SDS011;29633;49.168;9.848;2022-07-21T13:16:11;3.65;;;2.75;;
40991;SDS011;29633;49.168;9.848;2022-07-21T13:18:36;2.67;;;2.47;;
40991;SDS011;29633;49.168;9.848;2022-07-21T13:21:02;3.63;;;3.33;;
40991;SDS011;29633;49.168;9.848;2022-07-21T13:23:29;3.22;;;2.55;;
40991;SDS011;29633;49.168;9.848;2022-07-21T13:25:55;3.22;;;2.55;;
40991;SDS011;29633;49.168;9.848;2022-07-21T13:28:21;2.65;;;2.45;;
40991;SDS011;29633;49.168;9.848;2022-07-21T13:30:47;3.47;;;3.17;;
40991;SDS011;29633;49.168;9.848;2022-07-21T13:33:15;3.28;;;2.97;;
40991;SDS011;29633;49.168;9.848;2022-07-21T13:35:42;4.68;;;2.40;;
40991;SDS011;29633;49.168;9.848;2022-07-21T13:38:08;3.38;;;3.08;;
40991;SDS011;29633;49.168;9.848;2022-07-21T13:40:34;3.08;;;2.78;;
40991;SDS011;29633;49.168;9.848;2022-07-21T13:43:02;2.90;;;2.60;;
40991;SDS011;29633;49.168;9.848;2022-07-21T13:45:31;2.40;;;2.20;;
40991;SDS011;29633;49.168;9.848;2022-07-21T13:47:57;4.13;;;2.42;;
40991;SDS011;29633;49.168;9.848;2022-07-21T13:50:23;2.50;;;2.30;;
40991;SDS011;29633;49.168;9.848;2022-07-21T13:52:49;2.50;;;2.28;;
40991;SDS011;29633;49.168;9.848;2022-07-21T13:55:14;2.80;;;2.28;;
40991;SDS011;29633;49.168;9.848;2022-07-21T13:57:40;2.63;;;2.42;;
40991;SDS011;29633;49.168;9.848;2022-07-21T14:00:07;2.83;;;2.50;;
40991;SDS011;29633;49.168;9.848;2022-07-21T14:02:37;2.20;;;2.00;;
40991;SDS011;29633;49.168;9.848;2022-07-21T14:05:03;2.60;;;2.40;;
40991;SDS011;29633;49.168;9.848;2022-07-21T14:07:30;3.53;;;2.47;;
40991;SDS011;29633;49.168;9.848;2022-07-21T14:09:55;2.20;;;2.00;;
40991;SDS011;29633;49.168;9.848;2022-07-21T14:12:21;2.55;;;2.30;;
40991;SDS011;29633;49.168;9.848;2022-07-21T14:14:48;2.40;;;2.20;;
40991;SDS011;29633;49.168;9.848;2022-07-21T14:17:14;3.88;;;2.10;;
40991;SDS011;29633;49.168;9.848;2022-07-21T14:19:41;2.13;;;1.92;;
40991;SDS011;29633;49.168;9.848;2022-07-21T14:22:09;2.85;;;2.13;;
40991;SDS011;29633;49.168;9.848;2022-07-21T14:24:35;2.45;;;2.25;;
40991;SDS011;29633;49.168;9.848;2022-07-21T14:27:20;2.78;;;2.33;;
40991;SDS011;29633;49.168;9.848;2022-07-21T14:29:46;2.90;;;2.38;;
40991;SDS011;29633;49.168;9.848;2022-07-21T14:32:12;2.50;;;2.30;;
40991;SDS011;29633;49.168;9.848;2022-07-21T14:34:38;2.88;;;2.20;;
40991;SDS011;29633;49.168;9.848;2022-07-21T14:37:04;3.22;;;1.95;;
40991;SDS011;29633;49.168;9.848;2022-07-21T14:39:30;2.55;;;1.95;;
40991;SDS011;29633;49.168;9.848;2022-07-21T14:41:56;2.45;;;2.25;;
40991;SDS011;29633;49.168;9.848;2022-07-21T14:44:22;2.20;;;2.00;;
40991;SDS011;29633;49.168;9.848;2022-07-21T14:46:48;2.10;;;2.00;;
40991;SDS011;29633;49.168;9.848;2022-07-21T14:49:13;3.30;;;1.98;;
40991;SDS011;29633;49.168;9.848;2022-07-21T14:51:39;2.85;;;2.20;;
40991;SDS011;29633;49.168;9.848;2022-07-21T14:54:05;4.07;;;3.75;;
40991;SDS011;29633;49.168;9.848;2022-07-21T14:56:30;3.10;;;2.67;;
40991;SDS011;29633;49.168;9.848;2022-07-21T14:58:56;3.42;;;2.35;;
40991;SDS011;29633;49.168;9.848;2022-07-21T15:01:23;2.42;;;2.22;;
40991;SDS011;29633;49.168;9.848;2022-07-21T15:03:50;2.38;;;2.15;;
40991;SDS011;29633;49.168;9.848;2022-07-21T15:06:16;2.65;;;2.08;;
40991;SDS011;29633;49.168;9.848;2022-07-21T15:08:42;2.75;;;2.55;;
40991;SDS011;29633;49.168;9.848;2022-07-21T15:11:08;3.97;;;2.30;;
40991;SDS011;29633;49.168;9.848;2022-07-21T15:13:34;2.53;;;1.98;;
40991;SDS011;29633;49.168;9.848;2022-07-21T15:15:59;1.95;;;1.75;;
40991;SDS011;29633;49.168;9.848;2022-07-21T15:18:27;2.58;;;2.15;;
40991;SDS011;29633;49.168;9.848;2022-07-21T15:20:53;2.85;;;2.20;;
40991;SDS011;29633;49.168;9.848;2022-07-21T15:23:19;2.97;;;2.20;;
40991;SDS011;29633;49.168;9.848;2022-07-21T15:25:45;2.13;;;1.92;;
40991;SDS011;29633;49.168;9.848;2022-07-21T15:28:10;2.92;;;2.00;;
40991;SDS011;29633;49.168;9.848;2022-07-21T15:30:36;2.45;;;1.88;;
40991;SDS011;29633;49.168;9.848;2022-07-21T15:33:02;2.40;;;2.20;;
40991;SDS011;29633;49.168;9.848;2022-07-21T15:35:28;2.80;;;2.08;;
40991;SDS011;29633;49.168;9.848;2022-07-21T15:37:54;2.25;;;2.05;;
40991;SDS011;29633;49.168;9.848;2022-07-21T15:40:19;2.70;;;2.10;;
40991;SDS011;29633;49.168;9.848;2022-07-21T15:42:46;2.40;;;2.20;;
40991;SDS011;29633;49.168;9.848;2022-07-21T15:45:12;2.10;;;1.90;;
40991;SDS011;29633;49.168;9.848;2022-07-21T15:47:38;1.98;;;1.67;;
40991;SDS011;29633;49.168;9.848;2022-07-21T15:50:04;2.20;;;2.00;;
40991;SDS011;29633;49.168;9.848;2022-07-21T15:52:33;2.20;;;2.00;;
40991;SDS011;29633;49.168;9.848;2022-07-21T15:54:59;2.30;;;2.10;;
40991;SDS011;29633;49.168;9.848;2022-07-21T15:57:25;3.80;;;1.92;;
40991;SDS011;29633;49.168;9.848;2022-07-21T15:59:51;2.00;;;1.80;;
40991;SDS011;29633;49.168;9.848;2022-07-21T16:02:16;2.17;;;1.98;;
40991;SDS011;29633;49.168;9.848;2022-07-21T16:04:43;2.13;;;1.67;;
40991;SDS011;29633;49.168;9.848;2022-07-21T16:07:11;2.45;;;2.25;;
40991;SDS011;29633;49.168;9.848;2022-07-21T16:09:38;3.22;;;1.80;;
40991;SDS011;29633;49.168;9.848;2022-07-21T16:12:06;2.38;;;2.17;;
40991;SDS011;29633;49.168;9.848;2022-07-21T16:14:34;2.67;;;1.98;;